createdAt,value
2019-04-06T00:00:23.669Z,6.446533
2019-04-06T00:01:33.215Z,6.456604
2019-04-06T00:02:42.672Z,6.476746
2019-04-06T00:03:52.226Z,6.486816
2019-04-06T00:05:01.665Z,6.476746
2019-04-06T00:06:11.227Z,6.506958
2019-04-06T00:07:20.732Z,6.486816
2019-04-06T00:08:30.230Z,6.476746
2019-04-06T00:09:39.739Z,6.476746
2019-04-06T00:10:49.253Z,6.446533
2019-04-06T00:11:58.747Z,6.436462
2019-04-06T00:13:08.249Z,6.446533
2019-04-06T00:14:17.745Z,6.456604
2019-04-06T00:15:27.257Z,6.476746
2019-04-06T00:18:37.270Z,6.506958
2019-04-06T00:19:46.788Z,6.517029
2019-04-06T00:20:56.304Z,6.517029
2019-04-06T00:22:05.802Z,6.517029
2019-04-06T00:23:15.314Z,6.506958
2019-04-06T00:24:24.820Z,6.506958
2019-04-06T00:25:43.694Z,6.456604
2019-04-06T00:26:44.844Z,6.476746
2019-04-06T00:27:54.319Z,6.446533
2019-04-06T00:29:03.827Z,6.446533
2019-04-06T00:30:13.325Z,6.436462
2019-04-06T00:31:22.845Z,6.40625
2019-04-06T00:32:32.353Z,6.386108
2019-04-06T00:33:41.859Z,6.355896
2019-04-06T00:34:51.377Z,6.325684
2019-04-06T00:36:00.871Z,6.305542
2019-04-06T00:37:10.370Z,6.265259
2019-04-06T00:38:19.894Z,6.204834
2019-04-06T00:39:29.397Z,6.174622
2019-04-06T00:40:38.916Z,6.124268
2019-04-06T00:41:48.415Z,6.083984
2019-04-06T00:42:57.919Z,6.053772
2019-04-06T00:44:07.440Z,6.043701
2019-04-06T00:45:17.943Z,6.02356
2019-04-06T00:46:27.465Z,6.02356
2019-04-06T00:47:36.964Z,5.993347
2019-04-06T00:48:46.471Z,5.983276
2019-04-06T00:49:55.968Z,5.942993
2019-04-06T00:51:05.492Z,5.892639
2019-04-06T00:52:15.002Z,5.832214
2019-04-06T00:53:24.511Z,5.751648
2019-04-06T00:54:34.011Z,5.691223
2019-04-06T00:55:54.806Z,5.681152
2019-04-06T00:56:54.025Z,5.661011
2019-04-06T00:58:03.529Z,5.65094
2019-04-06T00:59:13.051Z,5.640869
2019-04-06T01:00:22.537Z,5.661011
2019-04-06T01:01:32.055Z,5.661011
2019-04-06T01:02:41.560Z,5.661011
2019-04-06T01:03:51.074Z,5.640869
2019-04-06T01:05:00.573Z,5.620728
2019-04-06T01:06:10.108Z,5.570374
2019-04-06T01:07:19.611Z,5.540161
2019-04-06T01:08:29.113Z,5.499878
2019-04-06T01:09:38.608Z,5.439453
2019-04-06T01:10:48.106Z,5.409241
2019-04-06T01:11:57.635Z,5.379028
2019-04-06T01:13:07.148Z,5.358887
2019-04-06T01:14:16.674Z,5.409241
2019-04-06T01:15:26.155Z,5.389099
2019-04-06T01:16:35.666Z,5.429382
2019-04-06T01:17:45.170Z,5.429382
2019-04-06T01:18:55.664Z,5.409241
2019-04-06T01:20:05.164Z,5.409241
2019-04-06T01:21:14.676Z,5.389099
2019-04-06T01:22:24.177Z,5.379028
2019-04-06T01:23:33.711Z,5.389099
2019-04-06T01:24:43.184Z,5.409241
2019-04-06T01:25:52.702Z,5.459595
2019-04-06T01:27:03.202Z,5.499878
2019-04-06T01:28:12.698Z,5.53009
2019-04-06T01:29:22.206Z,5.540161
2019-04-06T01:30:31.720Z,5.53009
2019-04-06T01:31:41.219Z,5.540161
2019-04-06T01:32:50.719Z,5.509949
2019-04-06T01:34:00.227Z,5.499878
2019-04-06T01:35:09.733Z,5.469666
2019-04-06T01:36:19.347Z,5.439453
2019-04-06T01:37:28.742Z,5.429382
2019-04-06T01:38:38.243Z,5.379028
2019-04-06T01:39:47.747Z,5.358887
2019-04-06T01:40:57.279Z,5.348816
2019-04-06T01:42:06.795Z,5.328674
2019-04-06T01:43:16.299Z,5.348816
2019-04-06T01:44:25.797Z,5.348816
2019-04-06T01:45:35.303Z,5.358887
2019-04-06T01:46:44.820Z,5.379028
2019-04-06T01:47:54.321Z,5.389099
2019-04-06T01:49:03.818Z,5.409241
2019-04-06T01:50:13.323Z,5.409241
2019-04-06T01:51:22.877Z,5.389099
2019-04-06T01:52:32.383Z,5.389099
2019-04-06T01:53:41.880Z,5.358887
2019-04-06T01:54:51.384Z,5.348816
2019-04-06T01:56:00.896Z,5.379028
2019-04-06T01:57:11.399Z,5.389099
2019-04-06T01:58:20.899Z,5.389099
2019-04-06T01:59:30.407Z,5.379028
2019-04-06T02:00:39.910Z,5.379028
2019-04-06T02:01:49.419Z,5.358887
2019-04-06T02:02:58.930Z,5.379028
2019-04-06T02:04:08.447Z,5.379028
2019-04-06T02:05:17.962Z,5.409241
2019-04-06T02:06:27.515Z,5.409241
2019-04-06T02:07:37.020Z,5.409241
2019-04-06T02:08:46.519Z,5.379028
2019-04-06T02:09:56.018Z,5.389099
2019-04-06T02:11:05.524Z,5.379028
2019-04-06T02:12:15.045Z,5.379028
2019-04-06T02:13:24.549Z,5.409241
2019-04-06T02:14:34.046Z,5.439453
2019-04-06T02:15:43.548Z,5.469666
2019-04-06T02:16:53.071Z,5.499878
2019-04-06T02:18:02.577Z,5.509949
2019-04-06T02:19:12.085Z,5.560303
2019-04-06T02:20:21.584Z,5.560303
2019-04-06T02:21:31.078Z,5.570374
2019-04-06T02:22:40.625Z,5.570374
2019-04-06T02:23:50.131Z,5.570374
2019-04-06T02:24:58.661Z,5.590515
2019-04-06T02:26:08.294Z,5.610657
2019-04-06T02:27:17.652Z,5.640869
2019-04-06T02:28:27.153Z,5.640869
2019-04-06T02:29:36.663Z,5.65094
2019-04-06T02:30:46.182Z,5.640869
2019-04-06T02:31:55.697Z,5.620728
2019-04-06T02:33:05.193Z,5.620728
2019-04-06T02:34:15.685Z,5.590515
2019-04-06T02:35:25.183Z,5.560303
2019-04-06T02:36:34.689Z,5.53009
2019-04-06T02:37:44.315Z,5.479736
2019-04-06T02:38:53.707Z,5.439453
2019-04-06T02:40:03.213Z,5.379028
2019-04-06T02:41:12.712Z,5.328674
2019-04-06T02:42:22.239Z,5.288391
2019-04-06T02:43:31.733Z,5.227966
2019-04-06T02:44:41.233Z,5.258179
2019-04-06T02:45:50.741Z,5.258179
2019-04-06T02:47:00.232Z,5.248108
2019-04-06T02:48:09.745Z,5.207825
2019-04-06T02:49:19.253Z,5.197754
2019-04-06T02:50:28.766Z,5.1474
2019-04-06T02:51:38.339Z,5.137329
2019-04-06T02:52:48.046Z,5.076904
2019-04-06T02:53:57.286Z,5.036621
2019-04-06T02:55:06.817Z,4.966125
2019-04-06T02:56:16.320Z,4.935913
2019-04-06T02:57:25.834Z,4.925842
2019-04-06T02:58:35.344Z,4.865417
2019-04-06T02:59:44.835Z,4.784851
2019-04-06T03:00:54.342Z,4.714355
2019-04-06T03:02:03.901Z,4.664001
2019-04-06T03:03:13.509Z,4.603577
2019-04-06T03:04:22.879Z,4.603577
2019-04-06T03:05:32.356Z,4.593506
2019-04-06T03:06:41.858Z,4.593506
2019-04-06T03:07:51.392Z,4.593506
2019-04-06T03:09:00.901Z,4.583435
2019-04-06T03:10:11.384Z,4.583435
2019-04-06T03:11:20.883Z,4.583435
2019-04-06T03:12:30.533Z,4.563293
2019-04-06T03:13:40.015Z,4.52301
2019-04-06T03:14:49.412Z,4.452515
2019-04-06T03:15:58.911Z,4.402161
2019-04-06T03:17:08.415Z,4.341736
2019-04-06T03:18:17.936Z,4.301453
2019-04-06T03:19:27.445Z,4.261169
2019-04-06T03:20:36.946Z,4.241028
2019-04-06T03:21:46.454Z,4.261169
2019-04-06T03:22:55.960Z,4.261169
2019-04-06T03:24:05.479Z,4.281311
2019-04-06T03:25:14.979Z,4.261169
2019-04-06T03:26:24.482Z,4.241028
2019-04-06T03:27:34.001Z,4.230957
2019-04-06T03:28:43.500Z,4.200745
2019-04-06T03:29:58.064Z,4.190674
2019-04-06T03:31:02.588Z,4.170532
2019-04-06T03:32:11.993Z,4.160461
2019-04-06T03:33:21.542Z,4.190674
2019-04-06T03:34:31.051Z,4.200745
2019-04-06T03:35:46.481Z,4.220886
2019-04-06T03:36:50.974Z,4.200745
2019-04-06T03:38:00.507Z,4.220886
2019-04-06T03:39:10.012Z,4.241028
2019-04-06T03:40:19.501Z,4.261169
2019-04-06T03:41:29.030Z,4.230957
2019-04-06T03:42:38.545Z,4.220886
2019-04-06T03:43:48.072Z,4.200745
2019-04-06T03:44:57.551Z,4.220886
2019-04-06T03:46:07.113Z,4.241028
2019-04-06T03:47:16.552Z,4.261169
2019-04-06T03:48:26.067Z,4.301453
2019-04-06T03:49:35.582Z,4.351807
2019-04-06T03:50:45.329Z,4.402161
2019-04-06T03:51:54.594Z,4.422302
2019-04-06T03:53:04.112Z,4.452515
2019-04-06T03:54:13.632Z,4.52301
2019-04-06T03:55:23.117Z,4.563293
2019-04-06T03:56:32.615Z,4.603577
2019-04-06T03:57:42.133Z,4.603577
2019-04-06T03:58:52.316Z,4.603577
2019-04-06T04:00:01.134Z,4.633789
2019-04-06T04:01:10.630Z,4.674072
2019-04-06T04:02:20.143Z,4.684143
2019-04-06T04:03:29.661Z,4.714355
2019-04-06T04:04:39.167Z,4.734497
2019-04-06T04:05:48.661Z,4.744568
2019-04-06T04:06:58.165Z,4.754639
2019-04-06T04:08:07.727Z,4.77478
2019-04-06T04:09:17.312Z,4.784851
2019-04-06T04:10:26.752Z,4.815063
2019-04-06T04:11:36.266Z,4.855347
2019-04-06T04:12:45.806Z,4.865417
2019-04-06T04:13:55.310Z,4.885559
2019-04-06T04:15:04.970Z,4.915771
2019-04-06T04:16:14.333Z,4.935913
2019-04-06T04:17:23.865Z,4.966125
2019-04-06T04:18:33.416Z,5.016479
2019-04-06T04:19:43.121Z,5.066833
2019-04-06T04:20:52.481Z,5.107117
2019-04-06T04:22:02.015Z,5.167542
2019-04-06T04:23:11.571Z,5.197754
2019-04-06T04:24:21.085Z,5.227966
2019-04-06T04:25:30.595Z,5.258179
2019-04-06T04:26:40.103Z,5.288391
2019-04-06T04:27:49.659Z,5.298462
2019-04-06T04:28:59.157Z,5.318604
2019-04-06T04:30:08.826Z,5.348816
2019-04-06T04:31:19.436Z,5.379028
2019-04-06T04:32:28.850Z,5.389099
2019-04-06T04:33:38.247Z,5.409241
2019-04-06T04:34:47.770Z,5.439453
2019-04-06T04:35:57.269Z,5.439453
2019-04-06T04:37:06.780Z,5.429382
2019-04-06T04:38:16.297Z,5.439453
2019-04-06T04:39:25.804Z,5.429382
2019-04-06T04:40:35.425Z,5.439453
2019-04-06T04:41:44.940Z,5.429382
2019-04-06T04:42:54.368Z,5.459595
2019-04-06T04:44:03.879Z,5.469666
2019-04-06T04:45:13.474Z,5.469666
2019-04-06T04:46:22.966Z,5.479736
2019-04-06T04:47:32.436Z,5.499878
2019-04-06T04:48:41.968Z,5.509949
2019-04-06T04:49:51.573Z,5.509949
2019-04-06T04:51:01.134Z,5.540161
2019-04-06T04:52:10.526Z,5.560303
2019-04-06T04:53:20.046Z,5.570374
2019-04-06T04:54:29.601Z,5.590515
2019-04-06T04:55:39.105Z,5.590515
2019-04-06T04:56:48.605Z,5.620728
2019-04-06T04:57:58.103Z,5.640869
2019-04-06T04:59:07.693Z,5.661011
2019-04-06T05:00:17.126Z,5.65094
2019-04-06T05:01:26.624Z,5.65094
2019-04-06T05:02:36.135Z,5.661011
2019-04-06T05:03:45.776Z,5.681152
2019-04-06T05:04:55.160Z,5.681152
2019-04-06T05:06:04.757Z,5.661011
2019-04-06T05:07:14.292Z,5.65094
2019-04-06T05:08:23.805Z,5.681152
2019-04-06T05:09:33.179Z,5.681152
2019-04-06T05:10:42.689Z,5.711365
2019-04-06T05:11:52.190Z,5.731506
2019-04-06T05:13:01.693Z,5.751648
2019-04-06T05:14:11.359Z,5.802002
2019-04-06T05:15:20.718Z,5.832214
2019-04-06T05:16:30.230Z,5.872498
2019-04-06T05:17:39.725Z,5.90271
2019-04-06T05:18:49.247Z,5.932922
2019-04-06T05:19:58.839Z,5.983276
2019-04-06T05:21:08.275Z,6.013489
2019-04-06T05:22:17.833Z,6.02356
2019-04-06T05:23:27.347Z,6.053772
2019-04-06T05:24:36.853Z,6.073914
2019-04-06T05:25:46.357Z,6.094055
2019-04-06T05:26:55.875Z,6.083984
2019-04-06T05:28:05.360Z,6.083984
2019-04-06T05:29:14.880Z,6.114197
2019-04-06T05:30:24.383Z,6.144409
2019-04-06T05:31:33.888Z,6.194763
2019-04-06T05:32:43.391Z,6.235046
2019-04-06T05:33:52.900Z,6.265259
2019-04-06T05:35:02.405Z,6.305542
2019-04-06T05:36:11.909Z,6.345825
2019-04-06T05:37:21.450Z,6.355896
2019-04-06T05:38:30.917Z,6.40625
2019-04-06T05:39:40.448Z,6.386108
2019-04-06T05:40:49.949Z,6.436462
2019-04-06T05:41:59.451Z,6.436462
2019-04-06T05:43:09.121Z,6.416321
2019-04-06T05:44:18.507Z,6.446533
2019-04-06T05:45:28.175Z,6.456604
2019-04-06T05:46:37.531Z,6.456604
2019-04-06T05:47:46.997Z,6.456604
2019-04-06T05:48:56.540Z,6.476746
2019-04-06T05:50:06.082Z,6.517029
2019-04-06T05:51:15.592Z,6.517029
2019-04-06T05:52:25.129Z,6.587524
2019-04-06T05:53:34.629Z,6.597595
2019-04-06T05:54:44.146Z,6.637878
2019-04-06T05:55:53.647Z,6.668091
2019-04-06T05:57:03.150Z,6.668091
2019-04-06T05:58:12.648Z,6.688232
2019-04-06T05:59:22.424Z,6.698303
2019-04-06T06:00:31.939Z,6.748657
2019-04-06T06:01:42.612Z,6.77887
2019-04-06T06:02:51.916Z,6.819153
2019-04-06T06:04:01.440Z,6.819153
2019-04-06T06:05:11.931Z,6.869507
2019-04-06T06:06:21.487Z,6.879578
2019-04-06T06:07:30.998Z,6.889648
2019-04-06T06:08:40.508Z,6.960144
2019-04-06T06:09:50.028Z,6.970215
2019-04-06T06:10:59.652Z,7.03064
2019-04-06T06:12:09.032Z,7.060852
2019-04-06T06:13:18.532Z,7.060852
2019-04-06T06:14:28.044Z,7.070923
2019-04-06T06:15:37.554Z,7.070923
2019-04-06T06:16:47.072Z,7.141418
2019-04-06T06:17:56.593Z,7.181702
2019-04-06T06:19:06.190Z,7.211914
2019-04-06T06:20:15.614Z,7.232056
2019-04-06T06:21:25.149Z,7.211914
2019-04-06T06:22:34.786Z,7.242126
2019-04-06T06:23:44.211Z,7.322693
2019-04-06T06:24:53.671Z,7.332764
2019-04-06T06:26:03.470Z,7.332764
2019-04-06T06:27:12.671Z,7.352905
2019-04-06T06:28:23.176Z,7.393188
2019-04-06T06:29:32.706Z,7.403259
2019-04-06T06:30:42.200Z,7.433472
2019-04-06T06:31:51.707Z,7.433472
2019-04-06T06:33:01.202Z,7.503967
2019-04-06T06:34:10.729Z,7.54425
2019-04-06T06:35:20.251Z,7.604675
2019-04-06T06:36:30.007Z,7.685242
2019-04-06T06:37:39.255Z,7.745667
2019-04-06T06:38:48.749Z,7.765808
2019-04-06T06:39:58.277Z,7.866516
2019-04-06T06:41:07.779Z,7.906799
2019-04-06T06:42:17.278Z,7.896729
2019-04-06T06:43:26.771Z,7.796021
2019-04-06T06:44:36.298Z,7.816162
2019-04-06T06:45:45.808Z,7.846375
2019-04-06T06:46:55.298Z,7.826233
2019-04-06T06:48:04.801Z,7.695312
2019-04-06T06:49:14.348Z,7.655029
2019-04-06T06:50:23.814Z,7.574463
2019-04-06T06:51:34.322Z,7.503967
2019-04-06T06:52:43.821Z,7.53418
2019-04-06T06:53:53.331Z,7.53418
2019-04-06T06:55:03.014Z,7.53418
2019-04-06T06:56:12.429Z,7.604675
2019-04-06T06:57:21.929Z,7.655029
2019-04-06T06:58:31.443Z,7.634888
2019-04-06T06:59:41.066Z,7.695312
2019-04-06T07:00:50.467Z,7.685242
2019-04-06T07:02:00.143Z,7.715454
2019-04-06T07:03:09.480Z,7.695312
2019-04-06T07:04:19.000Z,7.745667
2019-04-06T07:05:28.496Z,7.765808
2019-04-06T07:06:38.191Z,7.816162
2019-04-06T07:07:47.563Z,7.765808
2019-04-06T07:08:57.153Z,7.816162
2019-04-06T07:10:06.593Z,7.796021
2019-04-06T07:11:16.069Z,7.725525
2019-04-06T07:12:25.652Z,7.755737
2019-04-06T07:13:35.087Z,7.745667
2019-04-06T07:14:44.602Z,7.765808
2019-04-06T07:15:54.307Z,7.765808
2019-04-06T07:17:03.639Z,7.826233
2019-04-06T07:18:13.141Z,7.926941
2019-04-06T07:19:22.649Z,8.027649
2019-04-06T07:20:32.148Z,8.118286
2019-04-06T07:21:41.649Z,8.158569
2019-04-06T07:22:51.143Z,8.158569
2019-04-06T07:24:00.645Z,8.188782
2019-04-06T07:25:10.179Z,8.198853
2019-04-06T07:26:19.659Z,8.178711
2019-04-06T07:27:29.159Z,8.198853
2019-04-06T07:28:39.336Z,8.269348
2019-04-06T07:29:48.209Z,8.329773
2019-04-06T07:30:57.877Z,8.410339
2019-04-06T07:32:07.285Z,8.531189
2019-04-06T07:33:16.781Z,8.641968
2019-04-06T07:34:26.278Z,8.732605
2019-04-06T07:35:35.971Z,8.742676
2019-04-06T07:36:45.316Z,8.742676
2019-04-06T07:37:54.808Z,8.732605
2019-04-06T07:39:04.326Z,8.813171
2019-04-06T07:40:13.841Z,8.913879
2019-04-06T07:41:23.337Z,8.92395
2019-04-06T07:42:32.847Z,8.913879
2019-04-06T07:43:42.347Z,8.823242
2019-04-06T07:44:52.055Z,8.742676
2019-04-06T07:46:01.517Z,8.631897
2019-04-06T07:47:11.030Z,8.641968
2019-04-06T07:48:20.539Z,8.692322
2019-04-06T07:49:30.271Z,8.702393
2019-04-06T07:50:39.607Z,8.712463
2019-04-06T07:51:49.126Z,8.712463
2019-04-06T07:52:58.646Z,8.742676
2019-04-06T07:54:08.342Z,8.823242
2019-04-06T07:55:17.807Z,8.883667
2019-04-06T07:56:27.458Z,8.944092
2019-04-06T07:57:36.963Z,9.0448
2019-04-06T07:58:48.999Z,9.125366
2019-04-06T07:59:55.988Z,9.246216
2019-04-06T08:01:05.743Z,9.276428
2019-04-06T08:02:15.125Z,9.155579
2019-04-06T08:03:24.644Z,9.17572
2019-04-06T08:04:34.120Z,9.17572
2019-04-06T08:05:43.765Z,9.256287
2019-04-06T08:06:53.582Z,9.306641
2019-04-06T08:08:02.957Z,9.437561
2019-04-06T08:09:12.458Z,9.54834
2019-04-06T08:10:21.980Z,9.618835
2019-04-06T08:11:31.481Z,9.759827
2019-04-06T08:12:41.209Z,9.820251
2019-04-06T08:13:50.609Z,9.759827
2019-04-06T08:15:00.119Z,9.890747
2019-04-06T08:16:09.799Z,10.092163
2019-04-06T08:17:19.147Z,10.172729
2019-04-06T08:18:28.688Z,10.102234
2019-04-06T08:19:38.206Z,10.253296
2019-04-06T08:20:47.730Z,10.354004
2019-04-06T08:21:57.241Z,10.505066
2019-04-06T08:23:06.745Z,10.635986
2019-04-06T08:24:16.253Z,10.716553
2019-04-06T08:25:25.788Z,10.958252
2019-04-06T08:26:35.298Z,11.149597
2019-04-06T08:27:45.797Z,11.371155
2019-04-06T08:29:00.898Z,11.371155
2019-04-06T08:30:04.818Z,11.290588
2019-04-06T08:31:14.328Z,11.351013
2019-04-06T08:32:23.840Z,11.230164
2019-04-06T08:33:33.346Z,11.119385
2019-04-06T08:34:42.843Z,11.109314
2019-04-06T08:35:52.432Z,11.169739
2019-04-06T08:37:01.893Z,11.300659
2019-04-06T08:38:11.649Z,11.401367
2019-04-06T08:39:20.909Z,11.451721
2019-04-06T08:40:30.429Z,11.330872
2019-04-06T08:41:39.924Z,11.401367
2019-04-06T08:42:49.441Z,11.69342
2019-04-06T08:43:58.943Z,12.055969
2019-04-06T08:45:08.487Z,12.176819
2019-04-06T08:46:17.977Z,12.096252
2019-04-06T08:47:27.489Z,11.94519
2019-04-06T08:48:36.992Z,11.985474
2019-04-06T08:49:46.503Z,12.126465
2019-04-06T08:50:56.018Z,12.217102
2019-04-06T08:52:05.748Z,12.368164
2019-04-06T08:53:15.234Z,12.609863
2019-04-06T08:54:24.545Z,12.932129
2019-04-06T08:55:34.060Z,13.183899
2019-04-06T08:56:43.588Z,12.972412
2019-04-06T08:57:53.105Z,12.911987
2019-04-06T08:59:11.158Z,12.952271
2019-04-06T09:00:13.123Z,13.163757
2019-04-06T09:01:22.651Z,13.183899
2019-04-06T09:02:32.175Z,13.375244
2019-04-06T09:03:41.693Z,13.707581
2019-04-06T09:04:51.235Z,13.677368
2019-04-06T09:06:00.970Z,13.415527
2019-04-06T09:07:10.447Z,13.516235
2019-04-06T09:08:19.791Z,13.314819
2019-04-06T09:09:29.312Z,13.516235
2019-04-06T09:10:38.838Z,13.858643
2019-04-06T09:11:48.462Z,14.251404
2019-04-06T09:12:57.871Z,14.634094
2019-04-06T09:14:07.389Z,14.815369
2019-04-06T09:15:16.897Z,14.815369
2019-04-06T09:16:26.494Z,14.855652
2019-04-06T09:17:35.955Z,14.916077
2019-04-06T09:18:45.450Z,14.724731
2019-04-06T09:19:54.960Z,14.885864
2019-04-06T09:21:04.481Z,15.177917
2019-04-06T09:22:13.999Z,15.08728
2019-04-06T09:23:23.511Z,15.147705
2019-04-06T09:24:33.061Z,14.986572
2019-04-06T09:25:42.590Z,14.986572
2019-04-06T09:26:52.107Z,15.016785
2019-04-06T09:28:01.594Z,15.20813
2019-04-06T09:29:21.788Z,15.177917
2019-04-06T09:30:21.585Z,15.167847
2019-04-06T09:31:31.142Z,15.4599
2019-04-06T09:32:40.622Z,15.84259
2019-04-06T09:33:50.122Z,15.953369
2019-04-06T09:35:00.628Z,15.762024
2019-04-06T09:36:10.151Z,15.621033
2019-04-06T09:37:19.660Z,15.520325
2019-04-06T09:38:29.168Z,15.651245
2019-04-06T09:39:38.683Z,15.762024
2019-04-06T09:40:48.370Z,15.862732
2019-04-06T09:41:57.930Z,16.044006
2019-04-06T09:43:07.227Z,16.255493
2019-04-06T09:44:16.752Z,16.285706
2019-04-06T09:45:26.265Z,16.507263
2019-04-06T09:46:35.790Z,16.748962
2019-04-06T09:47:45.312Z,17.010803
2019-04-06T09:48:54.894Z,17.161865
2019-04-06T09:50:04.372Z,17.312927
2019-04-06T09:51:13.841Z,17.242432
2019-04-06T09:52:23.352Z,17.121582
2019-04-06T09:53:33.502Z,16.960449
2019-04-06T09:54:42.364Z,16.97052
2019-04-06T09:55:51.866Z,17.041016
2019-04-06T09:57:01.437Z,16.930237
2019-04-06T09:58:10.901Z,17.081299
2019-04-06T09:59:20.401Z,16.829529
2019-04-06T10:00:31.040Z,16.225281
2019-04-06T10:01:40.542Z,16.456909
2019-04-06T10:02:50.071Z,16.869812
2019-04-06T10:03:59.589Z,17.312927
2019-04-06T10:05:08.909Z,16.688538
2019-04-06T10:06:18.435Z,16.658325
2019-04-06T10:07:28.326Z,16.97052
2019-04-06T10:08:37.452Z,17.141724
2019-04-06T10:09:46.981Z,17.232361
2019-04-06T10:10:56.503Z,17.463989
2019-04-06T10:12:06.004Z,17.695618
2019-04-06T10:13:15.518Z,17.947388
2019-04-06T10:14:25.047Z,18.158875
2019-04-06T10:15:34.548Z,18.259583
2019-04-06T10:16:44.058Z,17.917175
2019-04-06T10:17:53.749Z,17.705688
2019-04-06T10:19:03.108Z,17.897034
2019-04-06T10:20:12.659Z,17.756042
2019-04-06T10:21:22.174Z,16.869812
2019-04-06T10:22:31.729Z,16.255493
2019-04-06T10:23:41.196Z,16.638184
2019-04-06T10:24:50.708Z,16.889954
2019-04-06T10:26:00.217Z,17.020874
2019-04-06T10:27:10.718Z,17.061157
2019-04-06T10:28:20.246Z,16.738892
2019-04-06T10:29:29.766Z,16.678467
2019-04-06T10:30:40.326Z,16.869812
2019-04-06T10:31:49.757Z,17.202148
2019-04-06T10:32:59.262Z,17.383423
2019-04-06T10:34:08.941Z,17.34314
2019-04-06T10:35:18.604Z,17.494202
2019-04-06T10:36:28.035Z,17.333069
2019-04-06T10:37:37.329Z,17.151794
2019-04-06T10:38:46.830Z,16.940308
2019-04-06T10:39:56.348Z,16.416626
2019-04-06T10:41:05.867Z,16.46698
2019-04-06T10:42:15.376Z,16.507263
2019-04-06T10:43:24.889Z,16.497192
2019-04-06T10:44:34.397Z,16.205139
2019-04-06T10:45:43.897Z,15.983582
2019-04-06T10:46:53.396Z,16.305847
2019-04-06T10:48:02.908Z,16.537476
2019-04-06T10:49:12.640Z,17.010803
2019-04-06T10:50:21.916Z,17.34314
2019-04-06T10:51:31.525Z,17.59491
2019-04-06T10:52:42.057Z,17.645264
2019-04-06T10:53:51.599Z,17.715759
2019-04-06T10:55:01.119Z,17.886963
2019-04-06T10:56:10.615Z,18.309937
2019-04-06T10:57:20.117Z,18.430786
2019-04-06T10:58:29.865Z,18.702698
2019-04-06T10:59:39.125Z,18.773193
2019-04-06T11:00:50.168Z,19.035034
2019-04-06T11:01:59.150Z,19.186096
2019-04-06T11:03:08.658Z,19.478149
2019-04-06T11:04:18.384Z,19.548645
2019-04-06T11:05:27.883Z,19.407654
2019-04-06T11:06:37.400Z,19.387512
2019-04-06T11:07:46.941Z,19.518433
2019-04-06T11:08:56.407Z,19.437866
2019-04-06T11:10:05.915Z,19.558716
2019-04-06T11:11:18.214Z,19.206238
2019-04-06T11:12:25.220Z,19.367371
2019-04-06T11:13:34.409Z,19.407654
2019-04-06T11:14:43.907Z,19.155884
2019-04-06T11:15:53.554Z,19.306946
2019-04-06T11:17:02.939Z,18.471069
2019-04-06T11:18:12.700Z,18.60199
2019-04-06T11:19:21.950Z,18.843689
2019-04-06T11:20:31.468Z,19.115601
2019-04-06T11:21:41.049Z,18.803406
2019-04-06T11:22:50.564Z,19.004822
2019-04-06T11:24:00.106Z,19.206238
2019-04-06T11:25:10.628Z,19.538574
2019-04-06T11:26:20.126Z,19.941406
2019-04-06T11:27:29.734Z,19.639282
2019-04-06T11:28:39.442Z,19.659424
2019-04-06T11:29:48.766Z,19.468079
2019-04-06T11:30:58.403Z,19.770203
2019-04-06T11:32:07.925Z,20.062256
2019-04-06T11:33:17.428Z,20.36438
2019-04-06T11:34:26.952Z,20.465088
2019-04-06T11:35:36.463Z,20.324097
2019-04-06T11:36:45.967Z,20.61615
2019-04-06T11:37:55.537Z,20.4953
2019-04-06T11:39:04.984Z,20.585938
2019-04-06T11:40:14.511Z,20.797424
2019-04-06T11:41:24.016Z,20.4953
2019-04-06T11:42:33.875Z,20.585938
2019-04-06T11:43:43.033Z,20.183105
2019-04-06T11:44:52.863Z,19.891052
2019-04-06T11:46:02.060Z,20.263672
2019-04-06T11:47:11.563Z,20.575867
2019-04-06T11:48:21.079Z,20.968628
2019-04-06T11:49:30.584Z,20.193176
2019-04-06T11:50:40.111Z,20.283813
2019-04-06T11:51:49.613Z,20.223389
2019-04-06T11:52:59.128Z,20.263672
2019-04-06T11:54:08.896Z,20.072327
2019-04-06T11:55:18.204Z,20.132751
2019-04-06T11:56:28.020Z,20.263672
2019-04-06T11:57:37.303Z,20.193176
2019-04-06T11:58:46.904Z,20.223389
2019-04-06T11:59:56.354Z,19.760132
2019-04-06T12:01:05.959Z,19.911194
2019-04-06T12:02:15.469Z,19.337158
2019-04-06T12:03:24.973Z,19.155884
2019-04-06T12:04:34.482Z,19.689636
2019-04-06T12:05:44.536Z,20.374451
2019-04-06T12:06:54.151Z,20.646362
2019-04-06T12:08:03.478Z,20.324097
2019-04-06T12:09:12.988Z,19.588928
2019-04-06T12:10:22.555Z,19.397583
2019-04-06T12:11:32.087Z,19.176025
2019-04-06T12:12:41.593Z,18.964539
2019-04-06T12:13:51.095Z,19.367371
2019-04-06T12:15:00.602Z,19.216309
2019-04-06T12:16:10.118Z,19.48822
2019-04-06T12:17:19.636Z,20.263672
2019-04-06T12:18:29.371Z,20.837708
2019-04-06T12:19:46.158Z,21.321106
2019-04-06T12:20:55.896Z,21.069336
2019-04-06T12:22:05.107Z,21.300964
2019-04-06T12:23:14.706Z,21.643372
2019-04-06T12:24:24.245Z,21.985779
2019-04-06T12:25:33.870Z,22.076416
2019-04-06T12:26:43.421Z,22.136841
2019-04-06T12:27:52.987Z,22.177124
2019-04-06T12:29:02.529Z,22.146912
2019-04-06T12:30:12.060Z,22.277832
2019-04-06T12:31:21.589Z,22.781372
2019-04-06T12:32:31.185Z,22.932434
2019-04-06T12:33:40.927Z,22.12677
2019-04-06T12:34:50.271Z,21.11969
2019-04-06T12:35:59.988Z,20.193176
2019-04-06T12:37:09.263Z,20.001831
2019-04-06T12:38:18.775Z,20.213318
2019-04-06T12:39:28.300Z,20.877991
2019-04-06T12:40:37.905Z,21.572876
2019-04-06T12:41:47.416Z,22.066345
2019-04-06T12:42:56.925Z,22.449036
2019-04-06T12:44:06.565Z,21.572876
2019-04-06T12:45:16.125Z,21.321106
2019-04-06T12:46:25.629Z,21.331177
2019-04-06T12:47:35.210Z,21.351318
2019-04-06T12:48:44.685Z,20.555725
2019-04-06T12:49:54.287Z,20.777283
2019-04-06T12:51:04.114Z,20.928345
2019-04-06T12:52:13.603Z,21.089478
2019-04-06T12:53:22.812Z,20.465088
2019-04-06T12:54:32.743Z,20.696716
2019-04-06T12:55:41.947Z,20.575867
2019-04-06T12:56:51.533Z,20.656433
2019-04-06T12:58:01.011Z,20.666504
2019-04-06T12:59:10.609Z,21.290894
2019-04-06T13:00:20.245Z,21.361389
2019-04-06T13:01:29.637Z,20.817566
2019-04-06T13:02:39.163Z,20.686646
2019-04-06T13:03:48.730Z,21.109619
2019-04-06T13:04:58.261Z,21.522522
2019-04-06T13:06:07.770Z,21.824646
2019-04-06T13:07:17.292Z,21.915283
2019-04-06T13:08:27.047Z,22.408752
2019-04-06T13:09:36.493Z,22.660522
2019-04-06T13:10:45.806Z,23.174133
2019-04-06T13:11:55.313Z,22.569885
2019-04-06T13:13:04.832Z,22.449036
2019-04-06T13:14:14.355Z,22.982788
2019-04-06T13:15:23.868Z,24.51355
2019-04-06T13:16:33.392Z,25.319214
2019-04-06T13:17:42.872Z,26.034241
2019-04-06T13:18:52.376Z,25.429993
2019-04-06T13:20:01.907Z,25.168152
2019-04-06T13:21:11.409Z,25.248718
2019-04-06T13:22:20.909Z,25.681763
2019-04-06T13:23:30.427Z,24.886169
2019-04-06T13:24:40.272Z,25.631409
2019-04-06T13:25:49.503Z,25.802612
2019-04-06T13:26:58.979Z,25.661621
2019-04-06T13:28:08.485Z,25.168152
2019-04-06T13:29:18.013Z,24.976807
2019-04-06T13:30:27.515Z,24.634399
2019-04-06T13:31:37.029Z,23.355408